sensor_id;sensor_type;location;lat;lon;timestamp;P1;durP1;ratioP1;P2;durP2;ratioP2
22088;SDS011;11211;52.728;9.230;2022-12-20T00:01:19;4.63;;;3.33;;
22088;SDS011;11211;52.728;9.230;2022-12-20T00:03:47;8.55;;;4.50;;
22088;SDS011;11211;52.728;9.230;2022-12-20T00:06:15;4.13;;;3.33;;
22088;SDS011;11211;52.728;9.230;2022-12-20T00:08:41;12.25;;;3.90;;
22088;SDS011;11211;52.728;9.230;2022-12-20T00:11:09;3.53;;;2.70;;
22088;SDS011;11211;52.728;9.230;2022-12-20T00:13:36;4.68;;;2.90;;
22088;SDS011;11211;52.728;9.230;2022-12-20T00:16:06;4.22;;;3.70;;
22088;SDS011;11211;52.728;9.230;2022-12-20T00:18:34;5.28;;;2.65;;
22088;SDS011;11211;52.728;9.230;2022-12-20T00:21:02;5.72;;;3.30;;
22088;SDS011;11211;52.728;9.230;2022-12-20T00:23:30;8.43;;;2.67;;
22088;SDS011;11211;52.728;9.230;2022-12-20T00:26:01;9.77;;;5.18;;
22088;SDS011;11211;52.728;9.230;2022-12-20T00:28:29;4.80;;;3.30;;
22088;SDS011;11211;52.728;9.230;2022-12-20T00:30:57;3.63;;;2.58;;
22088;SDS011;11211;52.728;9.230;2022-12-20T00:33:25;4.85;;;3.20;;
22088;SDS011;11211;52.728;9.230;2022-12-20T00:35:53;22.10;;;4.70;;
22088;SDS011;11211;52.728;9.230;2022-12-20T00:38:20;10.90;;;4.70;;
22088;SDS011;11211;52.728;9.230;2022-12-20T00:40:46;5.60;;;4.80;;
22088;SDS011;11211;52.728;9.230;2022-12-20T00:43:13;3.70;;;2.67;;
22088;SDS011;11211;52.728;9.230;2022-12-20T00:45:40;3.05;;;2.40;;
22088;SDS011;11211;52.728;9.230;2022-12-20T00:48:07;5.85;;;1.65;;
22088;SDS011;11211;52.728;9.230;2022-12-20T00:50:35;9.27;;;3.53;;
22088;SDS011;11211;52.728;9.230;2022-12-20T00:53:02;7.22;;;3.60;;
22088;SDS011;11211;52.728;9.230;2022-12-20T00:55:29;2.38;;;2.05;;
22088;SDS011;11211;52.728;9.230;2022-12-20T00:57:56;6.03;;;3.13;;
22088;SDS011;11211;52.728;9.230;2022-12-20T01:00:22;3.58;;;2.45;;
22088;SDS011;11211;52.728;9.230;2022-12-20T01:02:49;4.88;;;2.78;;
22088;SDS011;11211;52.728;9.230;2022-12-20T01:05:16;5.10;;;2.70;;
22088;SDS011;11211;52.728;9.230;2022-12-20T01:07:44;2.97;;;2.63;;
22088;SDS011;11211;52.728;9.230;2022-12-20T01:10:11;5.68;;;3.25;;
22088;SDS011;11211;52.728;9.230;2022-12-20T01:12:37;3.75;;;3.42;;
22088;SDS011;11211;52.728;9.230;2022-12-20T01:15:04;4.10;;;2.28;;
22088;SDS011;11211;52.728;9.230;2022-12-20T01:17:32;4.75;;;3.03;;
22088;SDS011;11211;52.728;9.230;2022-12-20T01:19:58;5.95;;;3.13;;
22088;SDS011;11211;52.728;9.230;2022-12-20T01:22:25;5.22;;;3.03;;
22088;SDS011;11211;52.728;9.230;2022-12-20T01:24:53;4.45;;;2.97;;
22088;SDS011;11211;52.728;9.230;2022-12-20T01:27:20;2.08;;;1.90;;
22088;SDS011;11211;52.728;9.230;2022-12-20T01:29:47;5.10;;;2.45;;
22088;SDS011;11211;52.728;9.230;2022-12-20T01:32:14;2.90;;;2.10;;
22088;SDS011;11211;52.728;9.230;2022-12-20T01:34:40;4.05;;;2.58;;
22088;SDS011;11211;52.728;9.230;2022-12-20T01:37:07;3.45;;;2.35;;
22088;SDS011;11211;52.728;9.230;2022-12-20T01:39:34;4.40;;;3.65;;
22088;SDS011;11211;52.728;9.230;2022-12-20T01:42:02;5.63;;;3.00;;
22088;SDS011;11211;52.728;9.230;2022-12-20T01:47:17;4.93;;;3.10;;
22088;SDS011;11211;52.728;9.230;2022-12-20T01:49:45;7.22;;;3.03;;
22088;SDS011;11211;52.728;9.230;2022-12-20T01:52:14;2.30;;;1.08;;
22088;SDS011;11211;52.728;9.230;2022-12-20T01:54:44;5.30;;;2.45;;
22088;SDS011;11211;52.728;9.230;2022-12-20T01:57:15;4.45;;;2.13;;
22088;SDS011;11211;52.728;9.230;2022-12-20T01:59:45;1.88;;;1.10;;
22088;SDS011;11211;52.728;9.230;2022-12-20T02:02:15;2.67;;;2.42;;
22088;SDS011;11211;52.728;9.230;2022-12-20T02:04:42;4.90;;;3.08;;
22088;SDS011;11211;52.728;9.230;2022-12-20T02:07:09;3.90;;;1.50;;
22088;SDS011;11211;52.728;9.230;2022-12-20T02:09:41;9.82;;;3.38;;
22088;SDS011;11211;52.728;9.230;2022-12-20T02:12:09;8.43;;;2.50;;
22088;SDS011;11211;52.728;9.230;2022-12-20T02:14:43;2.55;;;1.75;;
22088;SDS011;11211;52.728;9.230;2022-12-20T02:17:27;4.50;;;2.08;;
22088;SDS011;11211;52.728;9.230;2022-12-20T02:20:03;2.25;;;1.52;;
22088;SDS011;11211;52.728;9.230;2022-12-20T02:22:52;1.48;;;1.38;;
22088;SDS011;11211;52.728;9.230;2022-12-20T02:25:37;2.63;;;1.50;;
22088;SDS011;11211;52.728;9.230;2022-12-20T02:28:13;6.70;;;2.05;;
22088;SDS011;11211;52.728;9.230;2022-12-20T02:30:55;1.85;;;1.38;;
22088;SDS011;11211;52.728;9.230;2022-12-20T02:33:25;5.35;;;2.25;;
22088;SDS011;11211;52.728;9.230;2022-12-20T02:35:53;2.95;;;2.45;;
22088;SDS011;11211;52.728;9.230;2022-12-20T02:38:27;1.98;;;1.60;;
22088;SDS011;11211;52.728;9.230;2022-12-20T02:40:56;1.92;;;1.75;;
22088;SDS011;11211;52.728;9.230;2022-12-20T02:43:26;2.47;;;2.08;;
22088;SDS011;11211;52.728;9.230;2022-12-20T02:46:13;7.22;;;3.55;;
22088;SDS011;11211;52.728;9.230;2022-12-20T02:48:41;2.78;;;1.67;;
22088;SDS011;11211;52.728;9.230;2022-12-20T02:51:11;3.60;;;3.03;;
22088;SDS011;11211;52.728;9.230;2022-12-20T02:53:40;6.30;;;2.42;;
22088;SDS011;11211;52.728;9.230;2022-12-20T02:56:08;1.88;;;1.73;;
22088;SDS011;11211;52.728;9.230;2022-12-20T02:58:40;2.17;;;1.92;;
22088;SDS011;11211;52.728;9.230;2022-12-20T03:01:10;2.30;;;2.10;;
22088;SDS011;11211;52.728;9.230;2022-12-20T03:03:42;3.03;;;1.58;;
22088;SDS011;11211;52.728;9.230;2022-12-20T03:06:09;3.33;;;1.85;;
22088;SDS011;11211;52.728;9.230;2022-12-20T03:08:36;3.55;;;1.73;;
22088;SDS011;11211;52.728;9.230;2022-12-20T03:11:02;5.00;;;2.95;;
22088;SDS011;11211;52.728;9.230;2022-12-20T03:13:29;2.55;;;1.30;;
22088;SDS011;11211;52.728;9.230;2022-12-20T03:15:56;9.65;;;2.75;;
22088;SDS011;11211;52.728;9.230;2022-12-20T03:18:24;1.70;;;1.35;;
22088;SDS011;11211;52.728;9.230;2022-12-20T03:20:51;1.25;;;1.05;;
22088;SDS011;11211;52.728;9.230;2022-12-20T03:23:17;8.98;;;1.75;;
22088;SDS011;11211;52.728;9.230;2022-12-20T03:25:46;3.33;;;1.98;;
22088;SDS011;11211;52.728;9.230;2022-12-20T03:28:12;1.80;;;1.52;;
22088;SDS011;11211;52.728;9.230;2022-12-20T03:30:39;3.88;;;2.28;;
22088;SDS011;11211;52.728;9.230;2022-12-20T03:33:06;6.07;;;2.25;;
22088;SDS011;11211;52.728;9.230;2022-12-20T03:35:34;7.07;;;2.28;;
22088;SDS011;11211;52.728;9.230;2022-12-20T03:38:00;3.85;;;1.42;;
22088;SDS011;11211;52.728;9.230;2022-12-20T03:40:27;1.27;;;1.15;;
22088;SDS011;11211;52.728;9.230;2022-12-20T03:42:54;2.05;;;1.13;;
22088;SDS011;11211;52.728;9.230;2022-12-20T03:45:21;2.03;;;1.50;;
22088;SDS011;11211;52.728;9.230;2022-12-20T03:47:47;2.38;;;1.55;;
22088;SDS011;11211;52.728;9.230;2022-12-20T03:50:14;0.95;;;0.90;;
22088;SDS011;11211;52.728;9.230;2022-12-20T03:52:42;3.78;;;1.85;;
22088;SDS011;11211;52.728;9.230;2022-12-20T03:55:09;2.33;;;1.63;;
22088;SDS011;11211;52.728;9.230;2022-12-20T03:57:36;6.28;;;0.93;;
22088;SDS011;11211;52.728;9.230;2022-12-20T04:00:04;8.20;;;2.78;;
22088;SDS011;11211;52.728;9.230;2022-12-20T04:02:31;2.85;;;1.80;;
22088;SDS011;11211;52.728;9.230;2022-12-20T04:04:58;1.42;;;1.33;;
22088;SDS011;11211;52.728;9.230;2022-12-20T04:07:25;0.98;;;0.73;;
22088;SDS011;11211;52.728;9.230;2022-12-20T04:09:53;3.88;;;2.13;;
22088;SDS011;11211;52.728;9.230;2022-12-20T04:12:19;0.50;;;0.50;;
22088;SDS011;11211;52.728;9.230;2022-12-20T04:14:46;1.88;;;1.48;;
22088;SDS011;11211;52.728;9.230;2022-12-20T04:17:13;1.85;;;1.70;;
22088;SDS011;11211;52.728;9.230;2022-12-20T04:19:39;1.50;;;1.40;;
22088;SDS011;11211;52.728;9.230;2022-12-20T04:22:06;3.58;;;2.03;;
22088;SDS011;11211;52.728;9.230;2022-12-20T04:24:33;4.82;;;2.78;;
22088;SDS011;11211;52.728;9.230;2022-12-20T04:27:01;2.60;;;1.80;;
22088;SDS011;11211;52.728;9.230;2022-12-20T04:29:28;3.08;;;1.08;;
22088;SDS011;11211;52.728;9.230;2022-12-20T04:31:54;9.70;;;2.00;;
22088;SDS011;11211;52.728;9.230;2022-12-20T04:34:21;1.27;;;1.17;;
22088;SDS011;11211;52.728;9.230;2022-12-20T04:36:48;2.45;;;0.90;;
22088;SDS011;11211;52.728;9.230;2022-12-20T04:39:15;1.35;;;1.25;;
22088;SDS011;11211;52.728;9.230;2022-12-20T04:41:41;4.07;;;1.95;;
22088;SDS011;11211;52.728;9.230;2022-12-20T04:44:09;2.60;;;1.08;;
22088;SDS011;11211;52.728;9.230;2022-12-20T04:46:36;1.38;;;1.17;;
22088;SDS011;11211;52.728;9.230;2022-12-20T04:49:03;2.20;;;0.90;;
22088;SDS011;11211;52.728;9.230;2022-12-20T04:51:29;5.55;;;2.03;;
22088;SDS011;11211;52.728;9.230;2022-12-20T04:53:56;2.95;;;0.82;;
22088;SDS011;11211;52.728;9.230;2022-12-20T04:56:23;3.70;;;1.35;;
22088;SDS011;11211;52.728;9.230;2022-12-20T04:58:52;2.22;;;0.93;;
22088;SDS011;11211;52.728;9.230;2022-12-20T05:01:21;1.70;;;1.25;;
22088;SDS011;11211;52.728;9.230;2022-12-20T05:03:48;2.38;;;1.52;;
22088;SDS011;11211;52.728;9.230;2022-12-20T05:06:15;2.38;;;1.00;;
22088;SDS011;11211;52.728;9.230;2022-12-20T05:08:42;1.77;;;1.35;;
22088;SDS011;11211;52.728;9.230;2022-12-20T05:11:08;5.07;;;1.77;;
22088;SDS011;11211;52.728;9.230;2022-12-20T05:13:35;1.02;;;0.93;;
22088;SDS011;11211;52.728;9.230;2022-12-20T05:16:02;0.70;;;0.70;;
22088;SDS011;11211;52.728;9.230;2022-12-20T05:18:30;0.80;;;0.40;;
22088;SDS011;11211;52.728;9.230;2022-12-20T05:20:58;1.02;;;0.85;;
22088;SDS011;11211;52.728;9.230;2022-12-20T05:23:43;1.83;;;1.27;;
22088;SDS011;11211;52.728;9.230;2022-12-20T05:26:27;1.27;;;0.90;;
22088;SDS011;11211;52.728;9.230;2022-12-20T05:28:57;1.33;;;0.98;;
22088;SDS011;11211;52.728;9.230;2022-12-20T05:31:24;2.20;;;1.98;;
22088;SDS011;11211;52.728;9.230;2022-12-20T05:33:52;1.10;;;0.70;;
22088;SDS011;11211;52.728;9.230;2022-12-20T05:36:19;0.88;;;0.55;;
22088;SDS011;11211;52.728;9.230;2022-12-20T05:38:45;0.73;;;0.70;;
22088;SDS011;11211;52.728;9.230;2022-12-20T05:41:12;3.00;;;0.98;;
22088;SDS011;11211;52.728;9.230;2022-12-20T05:43:39;3.85;;;1.63;;
22088;SDS011;11211;52.728;9.230;2022-12-20T05:46:06;0.70;;;0.70;;
22088;SDS011;11211;52.728;9.230;2022-12-20T05:48:33;2.97;;;1.48;;
22088;SDS011;11211;52.728;9.230;2022-12-20T05:51:01;2.92;;;1.27;;
22088;SDS011;11211;52.728;9.230;2022-12-20T05:53:28;0.73;;;0.73;;
22088;SDS011;11211;52.728;9.230;2022-12-20T05:55:55;3.42;;;1.55;;
22088;SDS011;11211;52.728;9.230;2022-12-20T05:58:21;7.30;;;0.88;;
22088;SDS011;11211;52.728;9.230;2022-12-20T06:00:48;1.05;;;0.40;;
22088;SDS011;11211;52.728;9.230;2022-12-20T06:03:15;1.05;;;0.82;;
22088;SDS011;11211;52.728;9.230;2022-12-20T06:05:43;0.90;;;0.68;;
22088;SDS011;11211;52.728;9.230;2022-12-20T06:08:11;2.28;;;1.23;;
22088;SDS011;11211;52.728;9.230;2022-12-20T06:10:39;1.05;;;0.95;;
22088;SDS011;11211;52.728;9.230;2022-12-20T06:13:06;1.88;;;1.13;;
22088;SDS011;11211;52.728;9.230;2022-12-20T06:15:34;0.95;;;0.80;;
22088;SDS011;11211;52.728;9.230;2022-12-20T06:18:01;0.93;;;0.75;;
22088;SDS011;11211;52.728;9.230;2022-12-20T06:20:28;1.02;;;0.73;;
22088;SDS011;11211;52.728;9.230;2022-12-20T06:22:55;0.75;;;0.70;;
22088;SDS011;11211;52.728;9.230;2022-12-20T06:25:23;0.73;;;0.55;;
22088;SDS011;11211;52.728;9.230;2022-12-20T06:27:50;0.95;;;0.93;;
22088;SDS011;11211;52.728;9.230;2022-12-20T06:30:17;0.52;;;0.45;;
22088;SDS011;11211;52.728;9.230;2022-12-20T06:32:44;0.85;;;0.50;;
22088;SDS011;11211;52.728;9.230;2022-12-20T06:35:11;2.83;;;0.93;;
22088;SDS011;11211;52.728;9.230;2022-12-20T06:37:38;0.77;;;0.73;;
22088;SDS011;11211;52.728;9.230;2022-12-20T06:40:05;1.08;;;0.98;;
22088;SDS011;11211;52.728;9.230;2022-12-20T06:42:34;0.68;;;0.55;;
22088;SDS011;11211;52.728;9.230;2022-12-20T06:45:01;2.60;;;1.27;;
22088;SDS011;11211;52.728;9.230;2022-12-20T06:47:28;0.10;;;0.10;;
22088;SDS011;11211;52.728;9.230;2022-12-20T06:49:54;2.83;;;1.08;;
22088;SDS011;11211;52.728;9.230;2022-12-20T06:52:21;2.55;;;0.65;;
22088;SDS011;11211;52.728;9.230;2022-12-20T06:54:48;0.57;;;0.47;;
22088;SDS011;11211;52.728;9.230;2022-12-20T06:57:15;0.65;;;0.50;;
22088;SDS011;11211;52.728;9.230;2022-12-20T06:59:43;0.32;;;0.28;;
22088;SDS011;11211;52.728;9.230;2022-12-20T07:02:09;2.45;;;1.10;;
22088;SDS011;11211;52.728;9.230;2022-12-20T07:04:36;1.30;;;0.75;;
22088;SDS011;11211;52.728;9.230;2022-12-20T07:07:03;0.22;;;0.22;;
22088;SDS011;11211;52.728;9.230;2022-12-20T07:09:30;0.90;;;0.68;;
22088;SDS011;11211;52.728;9.230;2022-12-20T07:11:57;0.75;;;0.52;;
22088;SDS011;11211;52.728;9.230;2022-12-20T07:14:24;1.60;;;0.95;;
22088;SDS011;11211;52.728;9.230;2022-12-20T07:16:52;0.38;;;0.38;;
22088;SDS011;11211;52.728;9.230;2022-12-20T07:19:19;0.43;;;0.20;;
22088;SDS011;11211;52.728;9.230;2022-12-20T07:21:46;0.00;;;0.00;;
22088;SDS011;11211;52.728;9.230;2022-12-20T07:24:13;0.95;;;0.68;;
22088;SDS011;11211;52.728;9.230;2022-12-20T07:26:40;1.25;;;0.55;;
22088;SDS011;11211;52.728;9.230;2022-12-20T07:29:08;0.17;;;0.15;;
22088;SDS011;11211;52.728;9.230;2022-12-20T07:31:35;1.30;;;0.63;;
22088;SDS011;11211;52.728;9.230;2022-12-20T07:34:03;0.70;;;0.47;;
22088;SDS011;11211;52.728;9.230;2022-12-20T07:36:30;0.10;;;0.10;;
22088;SDS011;11211;52.728;9.230;2022-12-20T07:38:56;1.17;;;0.60;;
22088;SDS011;11211;52.728;9.230;2022-12-20T07:41:23;0.65;;;0.57;;
22088;SDS011;11211;52.728;9.230;2022-12-20T07:43:50;2.47;;;1.13;;
22088;SDS011;11211;52.728;9.230;2022-12-20T07:46:17;0.65;;;0.55;;
22088;SDS011;11211;52.728;9.230;2022-12-20T07:48:45;1.45;;;1.27;;
22088;SDS011;11211;52.728;9.230;2022-12-20T07:51:15;0.43;;;0.43;;
22088;SDS011;11211;52.728;9.230;2022-12-20T07:53:44;0.75;;;0.60;;
22088;SDS011;11211;52.728;9.230;2022-12-20T07:56:15;0.10;;;0.10;;
22088;SDS011;11211;52.728;9.230;2022-12-20T07:58:43;0.52;;;0.52;;
22088;SDS011;11211;52.728;9.230;2022-12-20T08:01:10;0.10;;;0.10;;
22088;SDS011;11211;52.728;9.230;2022-12-20T08:03:39;0.90;;;0.85;;
22088;SDS011;11211;52.728;9.230;2022-12-20T08:06:09;0.52;;;0.52;;
22088;SDS011;11211;52.728;9.230;2022-12-20T08:08:37;0.85;;;0.50;;
22088;SDS011;11211;52.728;9.230;2022-12-20T08:11:10;0.93;;;0.77;;
22088;SDS011;11211;52.728;9.230;2022-12-20T08:13:38;1.17;;;0.60;;
22088;SDS011;11211;52.728;9.230;2022-12-20T08:16:05;0.47;;;0.40;;
22088;SDS011;11211;52.728;9.230;2022-12-20T08:18:32;3.72;;;0.93;;
22088;SDS011;11211;52.728;9.230;2022-12-20T08:20:59;0.88;;;0.70;;
22088;SDS011;11211;52.728;9.230;2022-12-20T08:23:26;0.52;;;0.30;;
22088;SDS011;11211;52.728;9.230;2022-12-20T08:25:54;0.52;;;0.28;;
22088;SDS011;11211;52.728;9.230;2022-12-20T08:28:21;2.08;;;0.65;;
22088;SDS011;11211;52.728;9.230;2022-12-20T08:30:50;2.63;;;1.15;;
22088;SDS011;11211;52.728;9.230;2022-12-20T08:33:17;0.80;;;0.70;;
22088;SDS011;11211;52.728;9.230;2022-12-20T08:35:44;1.45;;;1.35;;
22088;SDS011;11211;52.728;9.230;2022-12-20T08:38:11;0.50;;;0.50;;
22088;SDS011;11211;52.728;9.230;2022-12-20T08:40:40;1.00;;;0.77;;
22088;SDS011;11211;52.728;9.230;2022-12-20T08:43:08;0.80;;;0.75;;
22088;SDS011;11211;52.728;9.230;2022-12-20T08:45:35;0.57;;;0.47;;
22088;SDS011;11211;52.728;9.230;2022-12-20T08:48:02;1.23;;;0.43;;
22088;SDS011;11211;52.728;9.230;2022-12-20T08:50:28;1.55;;;1.15;;
22088;SDS011;11211;52.728;9.230;2022-12-20T08:52:55;0.55;;;0.55;;
22088;SDS011;11211;52.728;9.230;2022-12-20T08:55:22;1.38;;;1.15;;
22088;SDS011;11211;52.728;9.230;2022-12-20T08:57:49;3.10;;;2.13;;
22088;SDS011;11211;52.728;9.230;2022-12-20T09:00:17;1.92;;;1.70;;
22088;SDS011;11211;52.728;9.230;2022-12-20T09:02:44;4.63;;;1.15;;
22088;SDS011;11211;52.728;9.230;2022-12-20T09:05:13;2.75;;;1.95;;
22088;SDS011;11211;52.728;9.230;2022-12-20T09:07:39;0.90;;;0.77;;
22088;SDS011;11211;52.728;9.230;2022-12-20T09:10:06;1.17;;;1.00;;
22088;SDS011;11211;52.728;9.230;2022-12-20T09:12:35;2.22;;;0.82;;
22088;SDS011;11211;52.728;9.230;2022-12-20T09:15:02;1.90;;;1.27;;
22088;SDS011;11211;52.728;9.230;2022-12-20T09:17:30;4.38;;;2.05;;
22088;SDS011;11211;52.728;9.230;2022-12-20T09:19:57;1.67;;;1.48;;
22088;SDS011;11211;52.728;9.230;2022-12-20T09:22:24;1.92;;;1.55;;
22088;SDS011;11211;52.728;9.230;2022-12-20T09:24:50;0.52;;;0.45;;
22088;SDS011;11211;52.728;9.230;2022-12-20T09:27:17;2.58;;;0.82;;
22088;SDS011;11211;52.728;9.230;2022-12-20T09:29:44;2.85;;;1.95;;
22088;SDS011;11211;52.728;9.230;2022-12-20T09:32:11;2.15;;;1.13;;
22088;SDS011;11211;52.728;9.230;2022-12-20T09:34:41;0.75;;;0.75;;
22088;SDS011;11211;52.728;9.230;2022-12-20T09:37:08;0.95;;;0.52;;
22088;SDS011;11211;52.728;9.230;2022-12-20T09:39:34;1.88;;;1.50;;
22088;SDS011;11211;52.728;9.230;2022-12-20T09:42:05;0.88;;;0.77;;
22088;SDS011;11211;52.728;9.230;2022-12-20T09:44:37;0.98;;;0.85;;
22088;SDS011;11211;52.728;9.230;2022-12-20T09:47:06;0.93;;;0.55;;
22088;SDS011;11211;52.728;9.230;2022-12-20T09:49:40;1.27;;;1.17;;
22088;SDS011;11211;52.728;9.230;2022-12-20T09:52:18;1.63;;;1.52;;
22088;SDS011;11211;52.728;9.230;2022-12-20T09:55:01;1.67;;;1.58;;
22088;SDS011;11211;52.728;9.230;2022-12-20T09:57:44;1.63;;;1.33;;
22088;SDS011;11211;52.728;9.230;2022-12-20T10:00:21;3.58;;;1.30;;
22088;SDS011;11211;52.728;9.230;2022-12-20T10:02:48;1.98;;;1.48;;
22088;SDS011;11211;52.728;9.230;2022-12-20T10:05:17;6.88;;;2.45;;
22088;SDS011;11211;52.728;9.230;2022-12-20T10:07:51;4.03;;;2.30;;
22088;SDS011;11211;52.728;9.230;2022-12-20T10:10:26;1.80;;;1.45;;
22088;SDS011;11211;52.728;9.230;2022-12-20T10:13:18;1.40;;;1.00;;
22088;SDS011;11211;52.728;9.230;2022-12-20T10:15:53;1.77;;;1.05;;
22088;SDS011;11211;52.728;9.230;2022-12-20T10:18:28;1.65;;;1.55;;
22088;SDS011;11211;52.728;9.230;2022-12-20T10:21:10;1.95;;;1.75;;
22088;SDS011;11211;52.728;9.230;2022-12-20T10:23:45;4.20;;;2.38;;
22088;SDS011;11211;52.728;9.230;2022-12-20T10:26:22;1.77;;;1.25;;
22088;SDS011;11211;52.728;9.230;2022-12-20T10:28:49;1.63;;;0.90;;
22088;SDS011;11211;52.728;9.230;2022-12-20T10:31:16;1.52;;;1.23;;
22088;SDS011;11211;52.728;9.230;2022-12-20T10:33:44;2.22;;;0.98;;
22088;SDS011;11211;52.728;9.230;2022-12-20T10:36:23;2.78;;;1.70;;
22088;SDS011;11211;52.728;9.230;2022-12-20T10:38:51;1.52;;;1.42;;
22088;SDS011;11211;52.728;9.230;2022-12-20T10:41:20;5.35;;;1.55;;
22088;SDS011;11211;52.728;9.230;2022-12-20T10:43:51;1.15;;;1.05;;
22088;SDS011;11211;52.728;9.230;2022-12-20T10:46:21;4.65;;;0.95;;
22088;SDS011;11211;52.728;9.230;2022-12-20T10:48:48;2.03;;;1.67;;
22088;SDS011;11211;52.728;9.230;2022-12-20T10:54:31;3.15;;;2.85;;
22088;SDS011;11211;52.728;9.230;2022-12-20T10:57:00;3.42;;;1.10;;
22088;SDS011;11211;52.728;9.230;2022-12-20T10:59:29;21.42;;;2.80;;
22088;SDS011;11211;52.728;9.230;2022-12-20T11:01:59;1.70;;;1.60;;
22088;SDS011;11211;52.728;9.230;2022-12-20T11:04:27;2.03;;;1.17;;
22088;SDS011;11211;52.728;9.230;2022-12-20T11:06:56;2.10;;;1.33;;
22088;SDS011;11211;52.728;9.230;2022-12-20T11:09:29;2.00;;;1.80;;
22088;SDS011;11211;52.728;9.230;2022-12-20T11:11:59;5.82;;;2.42;;
22088;SDS011;11211;52.728;9.230;2022-12-20T11:14:29;3.42;;;2.05;;
22088;SDS011;11211;52.728;9.230;2022-12-20T11:16:57;1.98;;;1.80;;
22088;SDS011;11211;52.728;9.230;2022-12-20T11:19:30;1.83;;;1.17;;
22088;SDS011;11211;52.728;9.230;2022-12-20T11:22:15;3.50;;;2.22;;
22088;SDS011;11211;52.728;9.230;2022-12-20T11:24:54;8.50;;;2.38;;
22088;SDS011;11211;52.728;9.230;2022-12-20T11:27:31;4.18;;;2.22;;
22088;SDS011;11211;52.728;9.230;2022-12-20T11:30:08;1.77;;;1.08;;
22088;SDS011;11211;52.728;9.230;2022-12-20T11:32:56;2.30;;;1.70;;
22088;SDS011;11211;52.728;9.230;2022-12-20T11:35:32;1.13;;;1.02;;
22088;SDS011;11211;52.728;9.230;2022-12-20T11:38:11;3.58;;;1.83;;
22088;SDS011;11211;52.728;9.230;2022-12-20T11:40:51;19.60;;;1.90;;
22088;SDS011;11211;52.728;9.230;2022-12-20T11:43:27;3.08;;;2.05;;
22088;SDS011;11211;52.728;9.230;2022-12-20T11:46:12;3.22;;;1.88;;
22088;SDS011;11211;52.728;9.230;2022-12-20T11:48:56;1.60;;;1.13;;
22088;SDS011;11211;52.728;9.230;2022-12-20T11:51:34;1.98;;;1.63;;
22088;SDS011;11211;52.728;9.230;2022-12-20T11:54:08;1.55;;;1.17;;
22088;SDS011;11211;52.728;9.230;2022-12-20T11:56:40;2.05;;;1.85;;
22088;SDS011;11211;52.728;9.230;2022-12-20T11:59:10;2.78;;;1.52;;
22088;SDS011;11211;52.728;9.230;2022-12-20T12:01:42;5.47;;;2.60;;
22088;SDS011;11211;52.728;9.230;2022-12-20T12:04:15;4.45;;;2.25;;
22088;SDS011;11211;52.728;9.230;2022-12-20T12:06:46;4.50;;;1.67;;
22088;SDS011;11211;52.728;9.230;2022-12-20T12:09:21;1.45;;;1.13;;
22088;SDS011;11211;52.728;9.230;2022-12-20T12:11:52;2.90;;;1.30;;
22088;SDS011;11211;52.728;9.230;2022-12-20T12:14:27;2.88;;;1.75;;
22088;SDS011;11211;52.728;9.230;2022-12-20T12:16:59;1.35;;;0.98;;
22088;SDS011;11211;52.728;9.230;2022-12-20T12:19:35;1.85;;;1.52;;
22088;SDS011;11211;52.728;9.230;2022-12-20T12:22:08;3.60;;;1.35;;
22088;SDS011;11211;52.728;9.230;2022-12-20T12:24:42;4.28;;;1.48;;
22088;SDS011;11211;52.728;9.230;2022-12-20T12:27:19;4.45;;;0.80;;
22088;SDS011;11211;52.728;9.230;2022-12-20T12:29:48;2.58;;;1.40;;
22088;SDS011;11211;52.728;9.230;2022-12-20T12:32:18;6.85;;;1.65;;
22088;SDS011;11211;52.728;9.230;2022-12-20T12:37:30;4.50;;;2.22;;
22088;SDS011;11211;52.728;9.230;2022-12-20T12:40:42;3.42;;;1.58;;
22088;SDS011;11211;52.728;9.230;2022-12-20T12:43:39;16.75;;;2.63;;
22088;SDS011;11211;52.728;9.230;2022-12-20T12:46:11;2.13;;;1.08;;
22088;SDS011;11211;52.728;9.230;2022-12-20T12:48:41;1.15;;;1.02;;
22088;SDS011;11211;52.728;9.230;2022-12-20T12:51:11;2.67;;;1.52;;
22088;SDS011;11211;52.728;9.230;2022-12-20T12:53:41;2.55;;;1.15;;
22088;SDS011;11211;52.728;9.230;2022-12-20T12:56:28;3.05;;;1.52;;
22088;SDS011;11211;52.728;9.230;2022-12-20T13:04:52;3.05;;;0.82;;
22088;SDS011;11211;52.728;9.230;2022-12-20T13:07:24;1.90;;;1.08;;
22088;SDS011;11211;52.728;9.230;2022-12-20T13:09:52;2.22;;;1.52;;
22088;SDS011;11211;52.728;9.230;2022-12-20T13:18:20;5.82;;;1.13;;
22088;SDS011;11211;52.728;9.230;2022-12-20T13:23:43;1.60;;;1.15;;
22088;SDS011;11211;52.728;9.230;2022-12-20T13:29:23;2.83;;;1.73;;
22088;SDS011;11211;52.728;9.230;2022-12-20T13:31:50;1.30;;;0.80;;
22088;SDS011;11211;52.728;9.230;2022-12-20T13:34:38;1.13;;;0.85;;
22088;SDS011;11211;52.728;9.230;2022-12-20T13:37:26;2.75;;;1.40;;
22088;SDS011;11211;52.728;9.230;2022-12-20T13:39:54;0.95;;;0.90;;
22088;SDS011;11211;52.728;9.230;2022-12-20T13:42:25;0.70;;;0.60;;
22088;SDS011;11211;52.728;9.230;2022-12-20T13:45:00;2.85;;;1.70;;
22088;SDS011;11211;52.728;9.230;2022-12-20T13:47:37;2.53;;;1.45;;
22088;SDS011;11211;52.728;9.230;2022-12-20T13:50:26;0.70;;;0.70;;
22088;SDS011;11211;52.728;9.230;2022-12-20T13:53:01;0.68;;;0.68;;
22088;SDS011;11211;52.728;9.230;2022-12-20T13:55:31;0.85;;;0.77;;
22088;SDS011;11211;52.728;9.230;2022-12-20T13:58:10;3.45;;;1.73;;
22088;SDS011;11211;52.728;9.230;2022-12-20T14:00:39;1.15;;;1.05;;
22088;SDS011;11211;52.728;9.230;2022-12-20T14:03:08;2.00;;;1.52;;
22088;SDS011;11211;52.728;9.230;2022-12-20T14:05:55;1.73;;;1.27;;
22088;SDS011;11211;52.728;9.230;2022-12-20T14:08:24;0.70;;;0.70;;
22088;SDS011;11211;52.728;9.230;2022-12-20T14:10:54;3.28;;;1.38;;
22088;SDS011;11211;52.728;9.230;2022-12-20T14:13:32;2.95;;;1.48;;
22088;SDS011;11211;52.728;9.230;2022-12-20T14:16:05;1.27;;;1.17;;
22088;SDS011;11211;52.728;9.230;2022-12-20T14:21:02;1.10;;;1.00;;
22088;SDS011;11211;52.728;9.230;2022-12-20T14:23:33;3.28;;;2.35;;
22088;SDS011;11211;52.728;9.230;2022-12-20T14:26:02;2.20;;;1.65;;
22088;SDS011;11211;52.728;9.230;2022-12-20T14:28:29;2.85;;;1.48;;
22088;SDS011;11211;52.728;9.230;2022-12-20T14:31:00;2.60;;;2.10;;
22088;SDS011;11211;52.728;9.230;2022-12-20T14:33:28;2.05;;;1.85;;
22088;SDS011;11211;52.728;9.230;2022-12-20T14:36:07;0.70;;;0.70;;
22088;SDS011;11211;52.728;9.230;2022-12-20T14:38:36;1.25;;;1.15;;
22088;SDS011;11211;52.728;9.230;2022-12-20T14:41:23;7.03;;;1.42;;
22088;SDS011;11211;52.728;9.230;2022-12-20T14:44:00;1.92;;;1.50;;
22088;SDS011;11211;52.728;9.230;2022-12-20T14:46:30;2.03;;;1.65;;
22088;SDS011;11211;52.728;9.230;2022-12-20T14:49:11;0.45;;;0.40;;
22088;SDS011;11211;52.728;9.230;2022-12-20T14:51:48;3.65;;;1.55;;
22088;SDS011;11211;52.728;9.230;2022-12-20T14:54:16;1.70;;;1.30;;
22088;SDS011;11211;52.728;9.230;2022-12-20T14:56:44;3.90;;;1.63;;
22088;SDS011;11211;52.728;9.230;2022-12-20T14:59:12;1.60;;;1.35;;
22088;SDS011;11211;52.728;9.230;2022-12-20T15:01:41;1.55;;;0.35;;
22088;SDS011;11211;52.728;9.230;2022-12-20T15:04:22;1.10;;;1.00;;
22088;SDS011;11211;52.728;9.230;2022-12-20T15:07:01;1.50;;;1.30;;
22088;SDS011;11211;52.728;9.230;2022-12-20T15:09:29;2.57;;;1.10;;
22088;SDS011;11211;52.728;9.230;2022-12-20T15:11:56;1.38;;;1.13;;
22088;SDS011;11211;52.728;9.230;2022-12-20T15:14:26;1.27;;;1.17;;
22088;SDS011;11211;52.728;9.230;2022-12-20T15:16:59;0.90;;;0.68;;
22088;SDS011;11211;52.728;9.230;2022-12-20T15:19:26;0.68;;;0.68;;
22088;SDS011;11211;52.728;9.230;2022-12-20T15:21:55;0.50;;;0.50;;
22088;SDS011;11211;52.728;9.230;2022-12-20T15:24:24;2.15;;;1.00;;
22088;SDS011;11211;52.728;9.230;2022-12-20T15:26:52;2.08;;;1.42;;
22088;SDS011;11211;52.728;9.230;2022-12-20T15:29:19;1.13;;;0.98;;
22088;SDS011;11211;52.728;9.230;2022-12-20T15:31:48;0.57;;;0.40;;
22088;SDS011;11211;52.728;9.230;2022-12-20T15:34:17;3.65;;;1.63;;